createdAt,value
2018-03-06T00:00:12.588Z,8.00
2018-03-06T00:02:40.129Z,9.47
2018-03-06T00:05:07.702Z,9.00
2018-03-06T00:07:35.262Z,10.07
2018-03-06T00:10:03.589Z,9.80
2018-03-06T00:12:31.135Z,9.27
2018-03-06T00:14:58.704Z,9.07
2018-03-06T00:17:27.005Z,10.30
2018-03-06T00:19:54.579Z,9.83
2018-03-06T00:22:22.135Z,10.40
2018-03-06T00:24:49.722Z,10.60
2018-03-06T00:27:17.256Z,9.93
2018-03-06T00:29:44.832Z,9.70
2018-03-06T00:32:13.160Z,10.77
2018-03-06T00:34:40.718Z,10.23
2018-03-06T00:37:08.268Z,10.67
2018-03-06T00:39:35.842Z,10.50
2018-03-06T00:42:04.153Z,9.87
2018-03-06T00:44:31.726Z,10.53
2018-03-06T00:47:00.033Z,12.20
2018-03-06T00:49:27.597Z,11.77
2018-03-06T00:51:55.139Z,11.37
2018-03-06T00:54:23.481Z,11.53
2018-03-06T00:56:51.017Z,11.50
2018-03-06T00:59:19.344Z,11.13
2018-03-06T01:01:46.884Z,11.70
2018-03-06T01:04:14.457Z,12.23
2018-03-06T01:06:42.004Z,11.97
2018-03-06T01:09:09.568Z,11.33
2018-03-06T01:11:37.103Z,12.90
2018-03-06T01:14:04.665Z,12.63
2018-03-06T01:16:32.225Z,13.30
2018-03-06T01:18:59.793Z,12.00
2018-03-06T01:21:27.325Z,12.00
2018-03-06T01:23:54.900Z,12.63
2018-03-06T01:26:22.442Z,13.20
2018-03-06T01:28:50.006Z,13.37
2018-03-06T01:31:17.549Z,13.97
2018-03-06T01:33:45.122Z,14.17
2018-03-06T01:36:13.424Z,13.50
2018-03-06T01:38:40.997Z,13.13
2018-03-06T01:41:08.543Z,12.87
2018-03-06T01:43:36.125Z,13.67
2018-03-06T01:46:03.650Z,13.93
2018-03-06T01:48:31.224Z,13.37
2018-03-06T01:50:58.765Z,14.33
2018-03-06T01:53:26.340Z,12.90
2018-03-06T01:55:53.876Z,12.63
2018-03-06T01:58:22.217Z,13.53
2018-03-06T02:00:49.865Z,15.00
2018-03-06T02:03:17.441Z,14.33
2018-03-06T02:05:44.984Z,14.50
2018-03-06T02:08:12.566Z,14.57
2018-03-06T02:10:40.869Z,16.60
2018-03-06T02:13:08.451Z,15.60
2018-03-06T02:15:35.987Z,15.20
2018-03-06T02:18:03.557Z,15.07
2018-03-06T02:20:31.096Z,16.10
2018-03-06T02:22:58.672Z,16.20
2018-03-06T02:25:26.213Z,18.60
2018-03-06T02:27:53.780Z,17.83
2018-03-06T02:30:21.312Z,17.30
2018-03-06T02:35:40.279Z,19.33
2018-03-06T02:38:07.844Z,17.37
2018-03-06T02:40:35.381Z,17.60
2018-03-06T02:43:03.729Z,18.97
2018-03-06T02:45:31.265Z,17.93
2018-03-06T02:47:58.843Z,17.77
2018-03-06T02:50:26.382Z,18.23
2018-03-06T02:52:53.947Z,19.37
2018-03-06T02:55:21.493Z,19.93
2018-03-06T02:57:49.053Z,18.47
2018-03-06T03:00:16.587Z,19.97
2018-03-06T03:02:44.929Z,19.20
2018-03-06T03:05:12.490Z,19.60
2018-03-06T03:07:40.068Z,20.57
2018-03-06T03:10:07.612Z,23.10
2018-03-06T03:12:35.188Z,21.83
2018-03-06T03:15:02.752Z,20.60
2018-03-06T03:17:30.328Z,20.50
2018-03-06T03:19:57.876Z,21.93
2018-03-06T03:22:26.224Z,20.87
2018-03-06T03:24:53.756Z,20.10
2018-03-06T03:27:21.337Z,18.60
2018-03-06T03:29:48.888Z,20.40
2018-03-06T03:32:17.223Z,19.67
2018-03-06T03:34:44.765Z,19.40
2018-03-06T03:37:13.095Z,19.37
2018-03-06T03:39:40.620Z,18.33
2018-03-06T03:42:08.168Z,18.50
2018-03-06T03:44:35.754Z,18.97
2018-03-06T03:47:04.058Z,16.53
2018-03-06T03:49:32.408Z,18.00
2018-03-06T03:51:59.966Z,18.23
2018-03-06T03:54:27.556Z,18.87
2018-03-06T03:56:55.088Z,17.67
2018-03-06T03:59:22.659Z,17.83
2018-03-06T04:01:50.199Z,18.00
2018-03-06T04:04:18.561Z,17.37
2018-03-06T04:06:46.094Z,16.37
2018-03-06T04:09:13.678Z,15.60
2018-03-06T04:11:41.216Z,16.83
2018-03-06T04:14:09.581Z,18.07
2018-03-06T04:16:37.138Z,18.30
2018-03-06T04:19:04.701Z,15.70
2018-03-06T04:21:32.253Z,16.80
2018-03-06T04:23:59.828Z,16.50
2018-03-06T04:26:27.367Z,16.77
2018-03-06T04:28:54.944Z,17.60
2018-03-06T04:31:23.264Z,19.27
2018-03-06T04:33:50.824Z,18.00
2018-03-06T04:36:18.368Z,19.07
2018-03-06T04:38:45.941Z,20.53
2018-03-06T04:41:14.261Z,17.47
2018-03-06T04:43:41.860Z,18.57
2018-03-06T04:46:09.394Z,19.23
2018-03-06T04:48:36.966Z,17.40
2018-03-06T04:51:04.513Z,18.43
2018-03-06T04:53:32.087Z,18.63
2018-03-06T04:55:59.624Z,18.10
2018-03-06T04:58:27.193Z,19.37
2018-03-06T05:00:54.733Z,19.57
2018-03-06T05:03:22.306Z,18.80
2018-03-06T05:05:49.850Z,18.90
2018-03-06T05:08:17.419Z,18.80
2018-03-06T05:10:44.957Z,19.27
2018-03-06T05:13:12.528Z,17.60
2018-03-06T05:15:40.067Z,19.10
2018-03-06T05:18:07.649Z,20.63
2018-03-06T05:20:35.193Z,19.57
2018-03-06T05:23:03.510Z,19.03
2018-03-06T05:25:31.083Z,18.67
2018-03-06T05:27:58.642Z,20.20
2018-03-06T05:30:26.237Z,20.00
2018-03-06T05:32:53.779Z,19.97
2018-03-06T05:35:21.357Z,19.83
2018-03-06T05:37:49.678Z,18.80
2018-03-06T05:40:17.248Z,18.60
2018-03-06T05:42:44.791Z,20.07
2018-03-06T05:45:12.370Z,21.27
2018-03-06T05:47:39.915Z,19.30
2018-03-06T05:50:07.541Z,20.50
2018-03-06T05:52:35.026Z,20.60
2018-03-06T05:55:02.601Z,19.80
2018-03-06T05:57:30.140Z,19.33
2018-03-06T05:59:57.730Z,20.50
2018-03-06T06:02:25.292Z,22.83
2018-03-06T06:04:52.873Z,19.47
2018-03-06T06:07:20.433Z,20.63
2018-03-06T06:09:47.992Z,20.20
2018-03-06T06:12:15.541Z,20.87
2018-03-06T06:14:43.872Z,20.50
2018-03-06T06:17:11.396Z,19.87
2018-03-06T06:19:38.949Z,20.63
2018-03-06T06:22:06.470Z,20.57
2018-03-06T06:24:34.822Z,20.57
2018-03-06T06:27:02.332Z,21.43
2018-03-06T06:29:29.904Z,21.90
2018-03-06T06:31:57.428Z,22.90
2018-03-06T06:34:25.001Z,22.60
2018-03-06T06:36:52.526Z,21.17
2018-03-06T06:39:20.085Z,22.70
2018-03-06T06:41:47.600Z,20.90
2018-03-06T06:44:15.152Z,22.00
2018-03-06T06:46:42.679Z,22.17
2018-03-06T06:49:10.228Z,21.40
2018-03-06T06:51:37.874Z,22.60
2018-03-06T06:54:06.353Z,22.23
2018-03-06T06:56:34.641Z,21.47
2018-03-06T06:59:02.956Z,22.00
2018-03-06T07:01:30.495Z,21.30
2018-03-06T07:03:58.058Z,23.73
2018-03-06T07:06:25.576Z,22.30
2018-03-06T07:08:53.141Z,21.63
2018-03-06T07:11:20.657Z,23.30
2018-03-06T07:13:48.209Z,20.50
2018-03-06T07:16:15.789Z,24.20
2018-03-06T07:18:43.471Z,22.73
2018-03-06T07:21:11.015Z,22.00
2018-03-06T07:23:38.557Z,21.10
2018-03-06T07:26:06.837Z,22.17
2018-03-06T07:28:34.391Z,23.20
2018-03-06T07:31:01.904Z,21.83
2018-03-06T07:33:30.247Z,22.10
2018-03-06T07:35:57.769Z,23.10
2018-03-06T07:38:25.288Z,23.97
2018-03-06T07:40:52.839Z,22.23
2018-03-06T07:43:20.356Z,21.50
2018-03-06T07:45:47.900Z,21.53
2018-03-06T07:48:15.414Z,22.87
2018-03-06T07:50:43.738Z,21.07
2018-03-06T07:53:11.269Z,21.03
2018-03-06T07:55:39.591Z,23.73
2018-03-06T07:58:07.113Z,23.33
2018-03-06T08:00:34.677Z,23.33
2018-03-06T08:03:03.793Z,21.97
2018-03-06T08:05:31.343Z,20.73
2018-03-06T08:07:58.868Z,23.70
2018-03-06T08:10:27.189Z,22.40
2018-03-06T08:12:54.704Z,22.03
2018-03-06T08:15:22.260Z,22.80
2018-03-06T08:17:49.806Z,22.03
2018-03-06T08:20:17.363Z,22.07
2018-03-06T08:22:44.882Z,24.90
2018-03-06T08:25:12.442Z,23.37
2018-03-06T08:27:39.964Z,22.43
2018-03-06T08:30:08.276Z,21.77
2018-03-06T08:32:35.803Z,22.40
2018-03-06T08:35:03.363Z,24.03
2018-03-06T08:37:30.896Z,22.00
2018-03-06T08:39:58.457Z,23.10
2018-03-06T08:42:25.980Z,22.33
2018-03-06T08:44:53.566Z,24.43
2018-03-06T08:47:21.079Z,24.10
2018-03-06T08:49:48.644Z,23.70
2018-03-06T08:52:16.170Z,22.77
2018-03-06T08:54:43.729Z,23.83
2018-03-06T08:57:11.297Z,23.60
2018-03-06T08:59:38.844Z,24.73
2018-03-06T09:02:06.368Z,24.23
2018-03-06T09:04:33.933Z,26.30
2018-03-06T09:07:01.464Z,24.17
2018-03-06T09:09:29.015Z,24.90
2018-03-06T09:11:57.320Z,24.50
2018-03-06T09:14:24.893Z,22.70
2018-03-06T09:16:52.422Z,24.00
2018-03-06T09:19:19.981Z,24.07
2018-03-06T09:21:47.507Z,23.50
2018-03-06T09:24:15.081Z,23.83
2018-03-06T09:26:42.610Z,25.30
2018-03-06T09:29:10.173Z,26.47
2018-03-06T09:31:37.700Z,25.40
2018-03-06T09:34:05.263Z,25.13
2018-03-06T09:36:32.788Z,26.87
2018-03-06T09:39:00.361Z,24.40
2018-03-06T09:41:27.876Z,24.57
2018-03-06T09:43:55.448Z,26.10
2018-03-06T09:46:23.745Z,27.05
2018-03-06T09:48:51.309Z,24.40
2018-03-06T09:51:18.842Z,24.13
2018-03-06T09:53:46.394Z,23.27
2018-03-06T09:56:13.916Z,23.57
2018-03-06T09:58:41.732Z,24.00
2018-03-06T10:01:09.272Z,24.00
2018-03-06T10:03:37.678Z,26.53
2018-03-06T10:06:05.234Z,24.93
2018-03-06T10:08:33.626Z,23.50
2018-03-06T10:11:01.966Z,26.87
2018-03-06T10:13:29.520Z,24.80
2018-03-06T10:15:57.069Z,25.90
2018-03-06T10:18:24.605Z,24.70
2018-03-06T10:20:52.170Z,24.80
2018-03-06T10:23:19.714Z,25.70
2018-03-06T10:25:47.288Z,23.47
2018-03-06T10:28:14.817Z,24.60
2018-03-06T10:30:43.148Z,23.10
2018-03-06T10:33:10.692Z,25.47
2018-03-06T10:35:38.297Z,25.10
2018-03-06T10:38:05.827Z,23.80
2018-03-06T10:40:34.152Z,23.80
2018-03-06T10:43:01.681Z,22.53
2018-03-06T10:45:29.242Z,23.97
2018-03-06T10:47:56.768Z,22.07
2018-03-06T10:50:24.324Z,25.20
2018-03-06T10:52:51.860Z,23.60
2018-03-06T10:55:19.435Z,22.47
2018-03-06T10:57:46.966Z,25.87
2018-03-06T11:00:14.497Z,22.60
2018-03-06T11:02:42.821Z,23.53
2018-03-06T11:05:10.356Z,24.10
2018-03-06T11:07:38.716Z,23.90
2018-03-06T11:10:06.261Z,25.10
2018-03-06T11:12:33.838Z,24.10
2018-03-06T11:15:01.389Z,24.30
2018-03-06T11:17:28.948Z,25.70
2018-03-06T11:19:57.249Z,26.20
2018-03-06T11:22:24.815Z,25.20
2018-03-06T11:24:52.345Z,24.63
2018-03-06T11:27:19.905Z,24.67
2018-03-06T11:29:47.434Z,24.80
2018-03-06T11:32:14.987Z,24.40
2018-03-06T11:34:43.285Z,24.27
2018-03-06T11:37:11.606Z,24.17
2018-03-06T11:39:39.148Z,22.57
2018-03-06T11:42:07.480Z,26.60
2018-03-06T11:44:35.016Z,23.10
2018-03-06T11:47:03.336Z,22.30
2018-03-06T11:49:30.861Z,23.80
2018-03-06T11:51:59.182Z,22.90
2018-03-06T11:54:26.718Z,26.90
2018-03-06T11:56:55.052Z,24.30
2018-03-06T11:59:22.572Z,23.70
2018-03-06T12:01:50.133Z,24.87
2018-03-06T12:04:17.669Z,27.70
2018-03-06T12:06:45.234Z,28.80
2018-03-06T12:09:12.762Z,26.10
2018-03-06T12:11:41.108Z,26.80
2018-03-06T12:14:08.670Z,28.57
2018-03-06T12:16:36.242Z,26.63
2018-03-06T12:19:03.769Z,28.37
2018-03-06T12:21:31.335Z,30.13
2018-03-06T12:23:58.876Z,29.50
2018-03-06T12:26:26.433Z,28.53
2018-03-06T12:28:53.950Z,28.67
2018-03-06T12:31:21.515Z,28.23
2018-03-06T12:33:49.046Z,28.50
2018-03-06T12:36:16.800Z,30.33
2018-03-06T12:38:45.097Z,30.70
2018-03-06T12:41:13.409Z,29.23
2018-03-06T12:43:40.955Z,28.60
2018-03-06T12:46:09.285Z,28.77
2018-03-06T12:48:36.807Z,26.80
2018-03-06T12:51:05.125Z,26.90
2018-03-06T12:53:32.674Z,29.13
2018-03-06T12:56:00.244Z,28.67
2018-03-06T12:58:27.767Z,28.97
2018-03-06T13:00:55.347Z,27.03
2018-03-06T13:03:22.920Z,26.50
2018-03-06T13:05:50.473Z,26.90
2018-03-06T13:08:18.031Z,26.27
2018-03-06T13:10:45.592Z,22.70
2018-03-06T13:13:13.121Z,23.67
2018-03-06T13:15:40.679Z,21.80
2018-03-06T13:18:08.211Z,23.93
2018-03-06T13:20:35.769Z,23.63
2018-03-06T13:23:03.292Z,21.97
2018-03-06T13:25:30.855Z,22.23
2018-03-06T13:27:58.389Z,23.70
2018-03-06T13:30:26.714Z,21.70
2018-03-06T13:32:54.255Z,22.27
2018-03-06T13:35:21.814Z,21.67
2018-03-06T13:37:49.340Z,22.60
2018-03-06T13:40:16.998Z,23.53
2018-03-06T13:42:44.569Z,24.73
2018-03-06T13:45:12.152Z,23.60
2018-03-06T13:47:39.675Z,21.80
2018-03-06T13:50:07.204Z,21.20
2018-03-06T13:52:34.782Z,22.50
2018-03-06T13:55:03.073Z,22.60
2018-03-06T13:57:30.641Z,24.10
2018-03-06T13:59:58.174Z,22.53
2018-03-06T14:02:25.750Z,24.47
2018-03-06T14:04:53.289Z,21.80
2018-03-06T14:07:20.864Z,22.57
2018-03-06T14:09:48.392Z,22.43
2018-03-06T14:12:15.949Z,21.57
2018-03-06T14:14:43.473Z,21.60
2018-03-06T14:17:11.064Z,21.70
2018-03-06T14:19:38.589Z,19.80
2018-03-06T14:22:06.152Z,21.20
2018-03-06T14:24:34.083Z,20.17
2018-03-06T14:27:01.654Z,21.70
2018-03-06T14:29:29.222Z,22.67
2018-03-06T14:31:56.781Z,23.50
2018-03-06T14:34:24.342Z,24.00
2018-03-06T14:36:51.868Z,22.77
2018-03-06T14:39:20.173Z,23.33
2018-03-06T14:41:47.733Z,23.60
2018-03-06T14:44:15.260Z,21.83
2018-03-06T14:46:42.817Z,22.27
2018-03-06T14:49:10.377Z,22.13
2018-03-06T14:51:37.896Z,22.03
2018-03-06T14:54:05.452Z,20.83
2018-03-06T14:56:32.999Z,21.97
2018-03-06T14:59:00.564Z,22.53
2018-03-06T15:01:28.084Z,21.50
2018-03-06T15:03:55.641Z,21.23
2018-03-06T15:06:23.175Z,20.27
2018-03-06T15:08:50.754Z,21.70
2018-03-06T15:11:18.276Z,19.60
2018-03-06T15:13:46.606Z,21.40
2018-03-06T15:16:14.145Z,22.63
2018-03-06T15:18:42.477Z,22.80
2018-03-06T15:21:10.018Z,21.70
2018-03-06T15:23:38.341Z,21.00
2018-03-06T15:26:05.880Z,22.53
2018-03-06T15:28:34.197Z,20.43
2018-03-06T15:31:01.715Z,23.33
2018-03-06T15:33:29.269Z,22.20
2018-03-06T15:35:56.808Z,21.50
2018-03-06T15:38:24.373Z,24.23
2018-03-06T15:40:51.933Z,22.20
2018-03-06T15:43:20.302Z,21.97
2018-03-06T15:45:47.886Z,23.93
2018-03-06T15:48:16.241Z,24.50
2018-03-06T15:50:43.826Z,24.70
2018-03-06T15:53:11.405Z,25.13
2018-03-06T15:55:39.009Z,23.83
2018-03-06T15:58:06.578Z,23.57
2018-03-06T16:00:34.929Z,22.83
2018-03-06T16:03:02.521Z,24.03
2018-03-06T16:05:30.118Z,23.83
2018-03-06T16:07:58.441Z,25.30
2018-03-06T16:10:26.032Z,25.53
2018-03-06T16:12:53.641Z,25.50
2018-03-06T16:15:21.222Z,24.80
2018-03-06T16:17:48.786Z,24.47
2018-03-06T16:20:17.145Z,23.97
2018-03-06T16:22:44.706Z,23.80
2018-03-06T16:25:13.073Z,23.43
2018-03-06T16:27:40.640Z,24.13
2018-03-06T16:30:08.259Z,22.33
2018-03-06T16:32:35.820Z,22.17
2018-03-06T16:35:03.410Z,22.00
2018-03-06T16:37:30.978Z,22.30
2018-03-06T16:39:58.575Z,22.20
2018-03-06T16:42:26.137Z,22.23
2018-03-06T16:44:53.737Z,22.47
2018-03-06T16:47:22.054Z,21.43
2018-03-06T16:49:49.649Z,21.63
2018-03-06T16:52:17.218Z,21.97
2018-03-06T16:54:44.813Z,20.30
2018-03-06T16:57:12.690Z,18.60
2018-03-06T16:59:40.276Z,20.13
2018-03-06T17:02:07.851Z,17.93
2018-03-06T17:04:35.443Z,16.07
2018-03-06T17:07:03.017Z,18.47
2018-03-06T17:09:31.384Z,17.80
2018-03-06T17:11:58.968Z,16.50
2018-03-06T17:14:26.556Z,17.50
2018-03-06T17:16:54.873Z,16.53
2018-03-06T17:19:22.462Z,17.10
2018-03-06T17:21:50.117Z,15.80
2018-03-06T17:24:17.698Z,16.63
2018-03-06T17:26:45.245Z,16.47
2018-03-06T17:29:12.870Z,16.03
2018-03-06T17:31:40.432Z,15.10
2018-03-06T17:34:08.022Z,17.20
2018-03-06T17:36:35.586Z,16.80
2018-03-06T17:39:03.198Z,15.53
2018-03-06T17:41:31.527Z,17.10
2018-03-06T17:43:59.110Z,14.97
2018-03-06T17:46:26.663Z,16.30
2018-03-06T17:48:54.258Z,15.70
2018-03-06T17:51:21.821Z,16.50
2018-03-06T17:53:49.410Z,16.80
2018-03-06T17:56:16.974Z,15.53
2018-03-06T17:58:44.601Z,15.67
2018-03-06T18:01:12.929Z,15.13
2018-03-06T18:03:40.522Z,16.90
2018-03-06T18:06:08.077Z,15.83
2018-03-06T18:08:35.665Z,15.73
2018-03-06T18:11:03.266Z,15.97
2018-03-06T18:13:30.816Z,15.10
2018-03-06T18:15:58.415Z,13.40
2018-03-06T18:18:25.964Z,14.40
2018-03-06T18:20:53.567Z,14.47
2018-03-06T18:23:21.128Z,13.70
2018-03-06T18:25:48.734Z,12.40
2018-03-06T18:28:16.293Z,12.83
2018-03-06T18:30:44.641Z,12.40
2018-03-06T18:33:12.196Z,12.20
2018-03-06T18:35:39.777Z,14.07
2018-03-06T18:38:07.334Z,13.20
2018-03-06T18:40:34.926Z,13.63
2018-03-06T18:43:02.477Z,11.97
2018-03-06T18:45:30.066Z,11.57
2018-03-06T18:47:57.622Z,11.93
2018-03-06T18:50:37.084Z,10.10
2018-03-06T18:53:04.653Z,11.50
2018-03-06T18:55:32.261Z,10.80
2018-03-06T18:58:01.013Z,12.37
2018-03-06T19:03:53.992Z,10.47
2018-03-06T19:06:42.305Z,10.10
2018-03-06T19:09:10.680Z,9.63
2018-03-06T19:11:38.241Z,10.63
2018-03-06T19:14:05.829Z,10.43
2018-03-06T19:16:33.379Z,9.73
2018-03-06T19:19:00.962Z,9.70
2018-03-06T19:21:28.522Z,10.90
2018-03-06T19:23:56.883Z,11.03
2018-03-06T19:26:24.434Z,11.67
2018-03-06T19:28:52.014Z,10.10
2018-03-06T19:31:19.564Z,11.10
2018-03-06T19:33:47.119Z,11.40
2018-03-06T19:36:14.637Z,10.90
2018-03-06T19:38:42.188Z,10.23
2018-03-06T19:41:09.701Z,11.47
2018-03-06T19:43:37.259Z,10.57
2018-03-06T19:46:04.797Z,11.10
2018-03-06T19:48:32.346Z,10.30
2018-03-06T19:50:59.873Z,11.80
2018-03-06T19:53:27.461Z,12.80
2018-03-06T19:55:55.003Z,11.77
2018-03-06T19:58:22.552Z,14.97
2018-03-06T20:00:50.140Z,14.17
2018-03-06T20:03:17.691Z,15.17
2018-03-06T20:05:45.212Z,14.20
2018-03-06T20:08:12.784Z,15.30
2018-03-06T20:10:40.300Z,17.37
2018-03-06T20:13:07.877Z,17.80
2018-03-06T20:15:35.392Z,17.60
2018-03-06T20:18:02.941Z,18.20
2018-03-06T20:20:30.458Z,18.10
2018-03-06T20:22:58.780Z,16.40
2018-03-06T20:25:32.685Z,17.60
2018-03-06T20:28:01.021Z,17.97
2018-03-06T20:30:34.333Z,17.10
2018-03-06T20:33:07.541Z,17.80
2018-03-06T20:35:35.063Z,16.20
2018-03-06T20:38:03.381Z,17.70
2018-03-06T20:40:33.824Z,16.10
2018-03-06T20:43:01.389Z,17.27
2018-03-06T20:45:34.650Z,17.93
2018-03-06T20:48:02.208Z,17.20
2018-03-06T20:50:29.729Z,18.47
2018-03-06T20:53:03.065Z,18.70
2018-03-06T20:55:30.584Z,17.03
2018-03-06T20:57:58.176Z,18.93
2018-03-06T21:00:25.706Z,16.90
2018-03-06T21:02:53.271Z,16.63
2018-03-06T21:05:20.884Z,17.10
2018-03-06T21:07:49.193Z,16.13
2018-03-06T21:10:16.716Z,16.47
2018-03-06T21:12:44.265Z,16.00
2018-03-06T21:15:11.785Z,17.77
2018-03-06T21:17:40.105Z,16.73
2018-03-06T21:20:08.333Z,14.70
2018-03-06T21:22:35.880Z,15.00
2018-03-06T21:25:03.453Z,17.20
2018-03-06T21:27:30.992Z,16.93
2018-03-06T21:29:58.500Z,18.03
2018-03-06T21:32:26.053Z,18.13
2018-03-06T21:34:53.596Z,17.73
2018-03-06T21:37:21.913Z,21.50
2018-03-06T21:39:49.435Z,20.10
2018-03-06T21:42:17.009Z,19.73
2018-03-06T21:44:44.529Z,22.67
2018-03-06T21:47:12.081Z,22.10
2018-03-06T21:49:39.616Z,23.90
2018-03-06T21:52:07.164Z,25.70
2018-03-06T21:54:34.692Z,23.50
2018-03-06T21:57:03.008Z,27.23
2018-03-06T21:59:30.525Z,28.20
2018-03-06T22:01:58.080Z,29.57
2018-03-06T22:04:25.601Z,28.67
2018-03-06T22:06:53.155Z,28.70
2018-03-06T22:09:20.692Z,29.07
2018-03-06T22:11:48.245Z,30.57
2018-03-06T22:14:15.768Z,31.67
2018-03-06T22:16:43.329Z,29.77
2018-03-06T22:19:10.845Z,27.50
2018-03-06T22:21:38.392Z,27.57
2018-03-06T22:24:05.909Z,28.33
2018-03-06T22:26:33.468Z,28.27
2018-03-06T22:29:00.989Z,30.60
2018-03-06T22:31:28.556Z,27.60
2018-03-06T22:33:56.082Z,32.00
2018-03-06T22:36:23.638Z,30.30
2018-03-06T22:38:51.921Z,28.63
2018-03-06T22:41:20.244Z,27.73
2018-03-06T22:43:47.768Z,30.30
2018-03-06T22:46:15.332Z,31.83
2018-03-06T22:48:42.850Z,32.40
2018-03-06T22:51:10.415Z,31.93
2018-03-06T22:53:37.932Z,33.57
2018-03-06T22:56:05.490Z,33.17
2018-03-06T22:58:33.014Z,36.00
2018-03-06T23:01:01.331Z,38.20
2018-03-06T23:03:28.850Z,36.97
2018-03-06T23:05:56.412Z,37.23
2018-03-06T23:08:25.362Z,36.50
2018-03-06T23:10:52.905Z,33.73
2018-03-06T23:13:20.429Z,35.97
2018-03-06T23:15:47.992Z,36.93
2018-03-06T23:18:15.516Z,33.07
2018-03-06T23:20:43.064Z,29.83
2018-03-06T23:23:10.581Z,36.60
2018-03-06T23:25:38.134Z,35.87
2018-03-06T23:28:05.660Z,33.97
2018-03-06T23:30:33.209Z,32.80
2018-03-06T23:33:00.734Z,29.83
2018-03-06T23:35:28.284Z,35.63
2018-03-06T23:37:55.798Z,35.87
2018-03-06T23:40:23.349Z,33.50
2018-03-06T23:42:50.869Z,35.37
2018-03-06T23:45:19.148Z,35.43
2018-03-06T23:47:47.460Z,37.67
2018-03-06T23:50:15.013Z,32.57
2018-03-06T23:52:43.301Z,36.37
2018-03-06T23:55:11.584Z,34.80
2018-03-06T23:57:39.072Z,36.07
